Time;durP1;ratioP1;P1;durP2;ratioP2;P2;SDS_P1;SDS_P2;PMS_P1;PMS_P2;Temp;Humidity;BMP_temperature;BMP_pressure;BME280_temperature;BME280_humidity;BME280_pressure;Samples;Min_cycle;Max_cycle;Signal;HPM_P1;HPM_P2
2022/04/15 00:00:47;;;;;;;;;;;13.70;99.90;;;;;;6115254;23;19935;-80
2022/04/15 00:03:15;;;;;;;;;;;13.70;99.70;;;;;;6123856;23;19921;-79
2022/04/15 00:05:45;;;;;;;;;;;13.60;99.90;;;;;;6114062;23;20275;-79
2022/04/15 00:08:13;;;;;;;;;;;13.60;99.90;;;;;;6124700;23;19920;-80
2022/04/15 00:10:45;;;;;;;;;;;13.50;99.80;;;;;;6139318;23;20347;-79
2022/04/15 00:13:14;;;;;;;;;;;13.50;99.80;;;;;;6148941;23;20117;-80
2022/04/15 00:15:42;;;;;;;;;;;13.50;99.90;;;;;;6124788;23;19931;-80
2022/04/15 00:18:09;;;;;;;;;;;13.40;99.90;;;;;;6150575;23;19921;-79
2022/04/15 00:20:37;;;;;;;;;;;13.40;99.90;;;;;;6139258;23;19935;-80
2022/04/15 00:23:05;;;;;;;;;;;13.30;99.90;;;;;;6142973;23;19921;-80
2022/04/15 00:25:33;;;;;;;;;;;13.20;99.90;;;;;;6109505;23;19921;-80
2022/04/15 00:28:01;;;;;;;;;;;13.30;99.90;;;;;;6135319;23;19925;-79
2022/04/15 00:30:29;;;;;;;;;;;13.10;99.90;;;;;;6123804;23;19925;-81
2022/04/15 00:32:56;;;;;;;;;;;12.10;99.90;;;;;;6122780;23;19921;-79
2022/04/15 00:35:24;;;;;;;;;;;13.00;99.90;;;;;;6145711;23;19925;-81
2022/04/15 00:37:52;;;;;;;;;;;13.00;99.90;;;;;;6119723;23;19928;-80
2022/04/15 00:40:20;;;;;;;;;;;12.90;99.90;;;;;;6113485;23;19935;-80
2022/04/15 00:42:48;;;;;;;;;;;12.90;99.90;;;;;;6113881;23;19928;-80
2022/04/15 00:45:16;;;;;;;;;;;12.80;99.90;;;;;;6121407;23;19921;-80
2022/04/15 00:47:53;;;;;;;;;;;12.70;99.90;;;;;;6134312;23;19932;-80
2022/04/15 00:50:22;;;;;;;;;;;12.70;99.90;;;;;;6135685;23;19945;-80
2022/04/15 00:52:50;;;;;;;;;;;12.60;99.90;;;;;;6112630;23;19921;-80
2022/04/15 00:55:20;;;;;;;;;;;12.50;99.90;;;;;;6109455;23;19921;-80
2022/04/15 00:57:51;;;;;;;;;;;12.50;99.90;;;;;;6113005;23;19922;-81
2022/04/15 01:00:20;;;;;;;;;;;12.40;99.90;;;;;;6086054;23;19921;-81
2022/04/15 01:02:53;;;;;;;;;;;11.90;99.90;;;;;;6110810;23;19921;-80
2022/04/15 01:05:22;;;;;;;;;;;12.30;99.90;;;;;;6145714;23;19921;-80
2022/04/15 01:07:50;;;;;;;;;;;12.20;99.90;;;;;;6122025;23;20332;-80
2022/04/15 01:10:19;;;;;;;;;;;12.10;99.90;;;;;;6120520;23;19927;-80
2022/04/15 01:12:53;;;;;;;;;;;12.10;99.90;;;;;;6143950;23;19928;-79
2022/04/15 01:15:42;;;;;;;;;;;12.00;99.90;;;;;;6139239;23;19922;-80
2022/04/15 01:18:10;;;;;;;;;;;11.90;99.90;;;;;;6135439;23;19921;-80
2022/04/15 01:20:39;;;;;;;;;;;11.90;99.90;;;;;;6111932;23;20244;-80
2022/04/15 01:23:07;;;;;;;;;;;11.80;99.90;;;;;;6145566;23;19921;-80
2022/04/15 01:25:35;;;;;;;;;;;11.80;99.90;;;;;;6115778;23;20504;-81
2022/04/15 01:28:03;;;;;;;;;;;11.80;99.90;;;;;;6149852;23;19935;-80
2022/04/15 01:30:30;;;;;;;;;;;11.80;99.90;;;;;;6125391;23;19925;-79
2022/04/15 01:32:58;;;;;;;;;;;11.80;99.90;;;;;;6150574;23;19921;-80
2022/04/15 01:35:31;;;;;;;;;;;11.80;99.90;;;;;;6114819;23;19925;-80
2022/04/15 01:38:00;;;;;;;;;;;11.80;99.90;;;;;;6114778;23;19921;-80
2022/04/15 01:40:27;;;;;;;;;;;11.80;99.90;;;;;;6090573;23;19927;-81
2022/04/15 01:42:55;;;;;;;;;;;11.80;99.90;;;;;;6125111;23;19920;-81
2022/04/15 01:45:22;;;;;;;;;;;11.90;99.90;;;;;;6148366;23;19924;-80
2022/04/15 01:47:52;;;;;;;;;;;11.90;99.90;;;;;;6114389;23;19931;-80
2022/04/15 01:50:19;;;;;;;;;;;12.00;99.90;;;;;;6142932;23;19921;-81
2022/04/15 01:52:47;;;;;;;;;;;11.90;99.90;;;;;;6140572;23;19931;-80
2022/04/15 01:55:15;;;;;;;;;;;11.90;99.90;;;;;;6124992;23;19931;-81
2022/04/15 01:57:42;;;;;;;;;;;11.90;99.90;;;;;;6138158;23;19921;-81
2022/04/15 02:00:10;;;;;;;;;;;11.90;99.90;;;;;;6114866;23;19925;-81
2022/04/15 02:02:41;;;;;;;;;;;12.20;99.90;;;;;;6114276;23;20382;-79
2022/04/15 02:05:08;;;;;;;;;;;11.90;99.90;;;;;;6146865;23;19921;-80
2022/04/15 02:07:36;;;;;;;;;;;11.90;99.90;;;;;;6110965;23;19921;-80
2022/04/15 02:10:05;;;;;;;;;;;11.80;99.90;;;;;;6113102;23;19931;-80
2022/04/15 02:12:33;;;;;;;;;;;12.80;99.90;;;;;;6140642;23;19931;-80
2022/04/15 02:15:01;;;;;;;;;;;11.80;99.90;;;;;;6114354;23;20295;-80
2022/04/15 02:17:29;;;;;;;;;;;10.60;99.90;;;;;;6066427;23;19921;-81
2022/04/15 02:19:57;;;;;;;;;;;11.80;99.90;;;;;;6139387;23;19921;-80
2022/04/15 02:22:24;;;;;;;;;;;11.80;99.90;;;;;;6114984;23;19921;-80
2022/04/15 02:24:52;;;;;;;;;;;11.70;99.90;;;;;;6116496;23;19924;-81
2022/04/15 02:27:21;;;;;;;;;;;11.70;99.90;;;;;;6113714;23;19931;-81
2022/04/15 02:29:48;;;;;;;;;;;11.70;99.90;;;;;;6138064;23;19931;-81
2022/04/15 02:32:16;;;;;;;;;;;11.70;99.90;;;;;;6123672;23;19928;-80
2022/04/15 02:34:44;;;;;;;;;;;11.60;99.90;;;;;;6150047;23;20323;-81
2022/04/15 02:37:11;;;;;;;;;;;11.60;99.90;;;;;;6150549;23;19925;-81
2022/04/15 02:39:39;;;;;;;;;;;11.50;99.90;;;;;;6117051;23;19928;-82
2022/04/15 02:42:07;;;;;;;;;;;11.50;99.90;;;;;;6116545;23;19927;-79
2022/04/15 02:44:36;;;;;;;;;;;11.50;99.90;;;;;;6125283;23;19927;-79
2022/04/15 02:47:04;;;;;;;;;;;11.50;99.90;;;;;;6151406;23;19944;-80
2022/04/15 02:49:32;;;;;;;;;;;9.60;99.90;;;;;;6151577;23;19925;-80
2022/04/15 02:52:00;;;;;;;;;;;11.50;99.90;;;;;;6144891;23;19921;-79
2022/04/15 02:54:28;;;;;;;;;;;11.40;99.90;;;;;;6101668;23;19931;-80
2022/04/15 02:56:55;;;;;;;;;;;11.40;99.90;;;;;;6140562;23;19925;-80
2022/04/15 02:59:23;;;;;;;;;;;11.30;99.90;;;;;;6116379;23;19927;-79
2022/04/15 03:02:15;;;;;;;;;;;11.30;99.90;;;;;;6141152;23;19931;-80
2022/04/15 03:04:48;;;;;;;;;;;11.20;99.90;;;;;;6118233;23;19925;-79
2022/04/15 03:07:15;;;;;;;;;;;11.20;99.90;;;;;;6143133;23;19921;-77
2022/04/15 03:09:45;;;;;;;;;;;10.80;99.90;;;;;;6120948;23;19951;-81
2022/04/15 03:12:13;;;;;;;;;;;11.10;99.90;;;;;;6147647;23;19924;-79
2022/04/15 03:14:41;;;;;;;;;;;11.10;99.90;;;;;;6150840;23;19931;-82
2022/04/15 03:17:09;;;;;;;;;;;11.10;99.90;;;;;;6140456;23;19954;-81
2022/04/15 03:19:37;;;;;;;;;;;11.00;99.90;;;;;;6118526;23;19931;-80
2022/04/15 03:22:05;;;;;;;;;;;11.30;99.90;;;;;;6115740;23;19927;-81
2022/04/15 03:24:32;;;;;;;;;;;10.90;99.90;;;;;;6115971;23;19935;-80
2022/04/15 03:27:00;;;;;;;;;;;10.90;99.90;;;;;;6152350;23;19927;-81
2022/04/15 03:29:27;;;;;;;;;;;10.80;99.90;;;;;;6126291;23;19932;-81
2022/04/15 03:31:55;;;;;;;;;;;10.90;99.90;;;;;;6116183;23;19925;-80
2022/04/15 03:34:23;;;;;;;;;;;10.80;99.90;;;;;;6140450;23;19925;-80
2022/04/15 03:36:50;;;;;;;;;;;11.10;99.90;;;;;;6116345;23;19927;-80
2022/04/15 03:39:18;;;;;;;;;;;10.80;99.90;;;;;;6151012;23;19928;-80
2022/04/15 03:41:46;;;;;;;;;;;10.80;99.90;;;;;;6117094;23;19921;-80
2022/04/15 03:44:14;;;;;;;;;;;10.70;99.90;;;;;;6125756;23;19925;-81
2022/04/15 03:46:42;;;;;;;;;;;10.70;99.90;;;;;;6141483;23;19931;-79
2022/04/15 03:49:10;;;;;;;;;;;10.70;99.90;;;;;;6150650;23;19927;-80
2022/04/15 03:51:38;;;;;;;;;;;10.60;99.90;;;;;;6115032;23;19931;-80
2022/04/15 03:54:05;;;;;;;;;;;10.60;99.90;;;;;;6125322;23;19921;-80
2022/04/15 03:56:34;;;;;;;;;;;9.90;99.90;;;;;;6150820;23;19927;-79
2022/04/15 03:59:03;;;;;;;;;;;10.50;99.90;;;;;;6150428;23;19921;-79
2022/04/15 04:01:31;;;;;;;;;;;10.50;99.90;;;;;;6116188;23;19921;-80
2022/04/15 04:03:58;;;;;;;;;;;10.40;99.90;;;;;;6151216;23;19951;-79
2022/04/15 04:06:26;;;;;;;;;;;10.40;99.90;;;;;;6115049;23;19921;-79
2022/04/15 04:08:54;;;;;;;;;;;10.40;99.90;;;;;;6117266;23;19932;-80
2022/04/15 04:11:21;;;;;;;;;;;10.30;99.90;;;;;;6139472;23;19931;-79
2022/04/15 04:13:51;;;;;;;;;;;10.30;99.90;;;;;;6139534;23;19927;-79
2022/04/15 04:16:19;;;;;;;;;;;10.30;99.90;;;;;;6152677;23;19927;-80
2022/04/15 04:18:46;;;;;;;;;;;10.30;99.90;;;;;;6145175;23;19921;-81
2022/04/15 04:21:14;;;;;;;;;;;10.30;99.90;;;;;;6139596;23;19925;-79
2022/04/15 04:23:43;;;;;;;;;;;9.80;99.90;;;;;;6146468;23;19925;-79
2022/04/15 04:26:11;;;;;;;;;;;10.20;99.90;;;;;;6141470;23;19924;-80
2022/04/15 04:28:39;;;;;;;;;;;10.20;99.90;;;;;;6151369;23;19921;-79
2022/04/15 04:31:06;;;;;;;;;;;10.20;99.90;;;;;;6150282;23;19940;-79
2022/04/15 04:33:34;;;;;;;;;;;10.10;99.90;;;;;;6118000;23;19921;-80
2022/04/15 04:36:02;;;;;;;;;;;10.20;99.90;;;;;;6115997;23;19951;-80
2022/04/15 04:38:31;;;;;;;;;;;10.00;99.90;;;;;;6151156;23;19927;-81
2022/04/15 04:41:01;;;;;;;;;;;10.00;99.90;;;;;;6115523;23;19921;-80
2022/04/15 04:43:29;;;;;;;;;;;10.00;99.90;;;;;;6125553;23;19931;-80
2022/04/15 04:45:57;;;;;;;;;;;10.10;99.90;;;;;;6140857;23;19925;-79
2022/04/15 04:48:25;;;;;;;;;;;9.90;99.90;;;;;;6091500;23;19931;-79
2022/04/15 04:50:52;;;;;;;;;;;9.90;99.90;;;;;;6148650;23;19940;-80
2022/04/15 04:53:20;;;;;;;;;;;10.20;99.90;;;;;;6114244;23;19924;-80
2022/04/15 04:55:49;;;;;;;;;;;9.90;99.90;;;;;;6145281;23;19925;-80
2022/04/15 04:58:18;;;;;;;;;;;9.80;99.90;;;;;;6138497;23;19932;-80
2022/04/15 05:00:47;;;;;;;;;;;9.70;99.90;;;;;;6141224;23;19908;-80
2022/04/15 05:03:15;;;;;;;;;;;9.80;99.90;;;;;;6143456;23;20383;-79
2022/04/15 05:05:43;;;;;;;;;;;9.70;99.90;;;;;;6141108;23;19925;-79
2022/04/15 05:08:12;;;;;;;;;;;9.50;99.90;;;;;;6152187;23;19921;-79
2022/04/15 05:10:39;;;;;;;;;;;9.70;99.90;;;;;;6142217;23;19931;-79
2022/04/15 05:13:07;;;;;;;;;;;9.80;99.90;;;;;;6126891;23;19921;-80
2022/04/15 05:15:35;;;;;;;;;;;9.70;99.90;;;;;;6143997;23;19935;-80
2022/04/15 05:18:04;;;;;;;;;;;9.70;99.90;;;;;;6125247;23;19921;-79
2022/04/15 05:20:34;;;;;;;;;;;9.90;99.90;;;;;;6151768;23;19925;-80
2022/04/15 05:23:02;;;;;;;;;;;9.80;99.90;;;;;;6116247;23;19921;-81
2022/04/15 05:25:30;;;;;;;;;;;9.80;99.90;;;;;;6091522;23;19921;-80
2022/04/15 05:28:04;;;;;;;;;;;9.90;99.90;;;;;;6149905;23;19921;-79
2022/04/15 05:30:32;;;;;;;;;;;9.90;99.90;;;;;;6151359;23;19920;-78
2022/04/15 05:33:01;;;;;;;;;;;10.00;99.90;;;;;;6115656;23;19921;-79
2022/04/15 05:35:29;;;;;;;;;;;10.00;99.90;;;;;;6151564;23;19920;-79
2022/04/15 05:37:59;;;;;;;;;;;10.00;99.90;;;;;;6127034;23;19921;-80
2022/04/15 05:40:28;;;;;;;;;;;10.00;99.90;;;;;;6126895;23;19927;-79
2022/04/15 05:42:56;;;;;;;;;;;10.10;99.90;;;;;;6126927;23;19921;-79
2022/04/15 05:45:26;;;;;;;;;;;10.10;99.90;;;;;;6151534;23;19921;-78
2022/04/15 05:47:57;;;;;;;;;;;10.20;99.90;;;;;;6127762;23;19921;-78
2022/04/15 05:50:25;;;;;;;;;;;10.20;99.90;;;;;;6153280;23;19925;-79
2022/04/15 05:52:53;;;;;;;;;;;10.20;99.90;;;;;;6116991;23;19929;-78
2022/04/15 05:55:21;;;;;;;;;;;10.30;99.90;;;;;;6151545;23;19925;-80
2022/04/15 05:57:49;;;;;;;;;;;10.30;99.90;;;;;;6150939;23;19921;-80
2022/04/15 06:00:17;;;;;;;;;;;10.40;99.90;;;;;;6143269;23;20213;-81
2022/04/15 06:02:44;;;;;;;;;;;10.50;99.90;;;;;;6116227;23;19920;-79
2022/04/15 06:05:13;;;;;;;;;;;10.50;99.90;;;;;;6141343;23;19928;-78
2022/04/15 06:07:42;;;;;;;;;;;10.60;99.90;;;;;;6116402;23;19925;-78
2022/04/15 06:10:10;;;;;;;;;;;10.60;99.90;;;;;;6117684;23;19921;-79
2022/04/15 06:15:30;;;;;;;;;;;10.70;99.90;;;;;;6115613;23;19931;-79
2022/04/15 06:17:59;;;;;;;;;;;10.80;99.90;;;;;;6126221;23;19969;-80
2022/04/15 06:20:28;;;;;;;;;;;10.90;99.90;;;;;;6154461;23;19920;-80
2022/04/15 06:22:57;;;;;;;;;;;10.90;99.90;;;;;;6094604;23;19921;-79
2022/04/15 06:25:28;;;;;;;;;;;11.00;99.90;;;;;;6115696;23;19921;-80
2022/04/15 06:27:56;;;;;;;;;;;11.00;99.90;;;;;;6116795;23;19932;-80
2022/04/15 06:30:28;;;;;;;;;;;11.20;99.90;;;;;;6116852;23;19921;-80
2022/04/15 06:32:55;;;;;;;;;;;11.20;99.90;;;;;;6112374;23;19921;-80
2022/04/15 06:35:25;;;;;;;;;;;11.20;99.90;;;;;;6113282;23;19932;-79
2022/04/15 06:37:52;;;;;;;;;;;11.20;99.90;;;;;;6122702;23;19922;-80
2022/04/15 06:40:20;;;;;;;;;;;11.30;99.90;;;;;;6115192;23;19909;-80
2022/04/15 06:42:47;;;;;;;;;;;11.30;99.90;;;;;;6123513;23;19921;-80
2022/04/15 06:45:17;;;;;;;;;;;11.40;99.90;;;;;;6122531;23;19922;-80
2022/04/15 06:47:45;;;;;;;;;;;11.40;99.90;;;;;;6112090;23;19921;-80
2022/04/15 06:50:13;;;;;;;;;;;11.50;99.90;;;;;;6123906;23;19940;-80
2022/04/15 06:52:42;;;;;;;;;;;11.50;99.90;;;;;;6111849;23;19921;-80
2022/04/15 06:55:09;;;;;;;;;;;11.60;99.90;;;;;;6114671;23;19921;-81
2022/04/15 06:57:37;;;;;;;;;;;11.60;99.90;;;;;;6109216;23;20008;-80
2022/04/15 07:00:06;;;;;;;;;;;11.70;99.90;;;;;;6086774;23;19931;-80
2022/04/15 07:02:35;;;;;;;;;;;11.70;99.90;;;;;;6088580;23;19925;-81
2022/04/15 07:05:05;;;;;;;;;;;11.80;99.90;;;;;;6124234;23;19925;-80
2022/04/15 07:07:36;;;;;;;;;;;11.90;99.90;;;;;;6113054;23;19921;-81
2022/04/15 07:10:07;;;;;;;;;;;11.90;99.90;;;;;;6114406;23;19929;-79
2022/04/15 07:12:35;;;;;;;;;;;12.10;99.90;;;;;;6112180;23;19928;-79
2022/04/15 07:15:03;;;;;;;;;;;12.10;99.90;;;;;;6086815;23;19932;-80
2022/04/15 07:17:31;;;;;;;;;;;12.20;99.90;;;;;;6111896;23;19925;-80
2022/04/15 07:20:00;;;;;;;;;;;12.20;99.90;;;;;;6112285;23;19921;-80
2022/04/15 07:22:28;;;;;;;;;;;12.30;99.90;;;;;;6121325;23;19921;-80
2022/04/15 07:24:55;;;;;;;;;;;12.40;99.90;;;;;;6138364;23;20145;-81
2022/04/15 07:27:24;;;;;;;;;;;12.50;99.90;;;;;;6138419;23;19929;-80
2022/04/15 07:29:52;;;;;;;;;;;12.60;99.90;;;;;;6112457;23;19928;-80
2022/04/15 07:32:21;;;;;;;;;;;11.30;99.90;;;;;;6114046;23;19931;-80
2022/04/15 07:34:50;;;;;;;;;;;12.80;99.90;;;;;;6139694;23;19927;-80
2022/04/15 07:37:17;;;;;;;;;;;13.00;99.90;;;;;;6114558;23;19931;-81
2022/04/15 07:39:46;;;;;;;;;;;13.00;99.90;;;;;;6125214;23;19921;-81
2022/04/15 07:42:14;;;;;;;;;;;13.30;99.90;;;;;;6147106;23;19936;-82
2022/04/15 07:44:44;;;;;;;;;;;13.20;99.90;;;;;;6113711;23;19931;-80
2022/04/15 07:47:12;;;;;;;;;;;13.90;99.90;;;;;;6147668;23;19921;-79
2022/04/15 07:49:39;;;;;;;;;;;13.50;99.90;;;;;;6139321;23;19932;-78
2022/04/15 07:52:08;;;;;;;;;;;13.50;99.90;;;;;;6113615;23;19921;-81
2022/04/15 07:54:36;;;;;;;;;;;13.60;99.90;;;;;;6124887;23;19925;-80
2022/04/15 07:57:04;;;;;;;;;;;13.60;99.90;;;;;;6123320;23;20102;-80
2022/04/15 07:59:34;;;;;;;;;;;13.70;99.90;;;;;;6111390;23;19921;-80
2022/04/15 08:02:03;;;;;;;;;;;13.80;99.90;;;;;;6145436;23;19940;-80
2022/04/15 08:04:34;;;;;;;;;;;13.90;99.90;;;;;;6145898;23;19928;-79
2022/04/15 08:07:02;;;;;;;;;;;14.00;99.90;;;;;;6138903;23;19928;-80
2022/04/15 08:09:32;;;;;;;;;;;14.10;99.90;;;;;;6087375;23;19927;-80
2022/04/15 08:12:00;;;;;;;;;;;14.10;99.90;;;;;;6138064;23;19921;-79
2022/04/15 08:14:28;;;;;;;;;;;14.30;99.90;;;;;;6087064;23;19925;-81
2022/04/15 08:16:55;;;;;;;;;;;14.40;99.90;;;;;;6134951;23;19993;-80
2022/04/15 08:19:24;;;;;;;;;;;14.40;99.90;;;;;;6110862;23;19925;-80
2022/04/15 08:21:52;;;;;;;;;;;13.10;99.90;;;;;;6136161;23;19921;-80
2022/04/15 08:24:21;;;;;;;;;;;15.30;99.90;;;;;;6115393;23;19925;-80
2022/04/15 08:26:54;;;;;;;;;;;14.70;99.90;;;;;;6116293;23;20247;-80
2022/04/15 08:29:22;;;;;;;;;;;14.80;99.90;;;;;;6141888;23;19921;-80
2022/04/15 08:31:50;;;;;;;;;;;14.90;99.90;;;;;;6114862;23;19927;-80
2022/04/15 08:34:18;;;;;;;;;;;14.50;99.90;;;;;;6116141;23;19944;-80
2022/04/15 08:36:45;;;;;;;;;;;15.10;99.90;;;;;;6150192;23;20255;-79
2022/04/15 08:39:13;;;;;;;;;;;15.20;99.90;;;;;;6151485;23;19925;-80
2022/04/15 08:41:42;;;;;;;;;;;15.30;99.90;;;;;;6149235;23;19921;-79
2022/04/15 08:44:11;;;;;;;;;;;15.40;99.90;;;;;;6151771;23;19921;-80
2022/04/15 08:46:39;;;;;;;;;;;15.50;99.90;;;;;;6141692;23;19925;-80
2022/04/15 08:49:08;;;;;;;;;;;15.60;99.90;;;;;;6114856;23;19921;-79
2022/04/15 08:51:36;;;;;;;;;;;15.70;99.90;;;;;;6142399;23;19927;-80
2022/04/15 08:54:05;;;;;;;;;;;15.70;99.90;;;;;;6150105;23;20078;-80
2022/04/15 08:56:32;;;;;;;;;;;15.80;99.90;;;;;;6149862;23;19921;-80
2022/04/15 08:59:00;;;;;;;;;;;16.00;99.90;;;;;;6142266;23;19920;-79
2022/04/15 09:01:28;;;;;;;;;;;15.90;99.90;;;;;;6143807;23;19926;-81
2022/04/15 09:03:57;;;;;;;;;;;16.00;99.90;;;;;;6140211;23;19921;-79
2022/04/15 09:06:29;;;;;;;;;;;16.10;99.90;;;;;;6145065;23;19927;-79
2022/04/15 09:09:03;;;;;;;;;;;16.20;99.90;;;;;;6094252;23;19931;-79
2022/04/15 09:11:34;;;;;;;;;;;15.40;99.90;;;;;;6115115;23;19927;-80
2022/04/15 09:14:03;;;;;;;;;;;16.20;99.90;;;;;;6067788;23;20038;-79
2022/04/15 09:16:31;;;;;;;;;;;16.50;99.90;;;;;;6115943;23;19921;-79
2022/04/15 09:18:59;;;;;;;;;;;16.60;99.90;;;;;;6143397;23;19924;-79
2022/04/15 09:21:28;;;;;;;;;;;16.70;99.90;;;;;;6143575;23;19921;-81
2022/04/15 09:23:56;;;;;;;;;;;16.70;99.90;;;;;;6143740;23;19921;-80
2022/04/15 09:26:24;;;;;;;;;;;16.80;99.90;;;;;;6114769;23;19925;-79
2022/04/15 09:28:53;;;;;;;;;;;16.80;99.90;;;;;;6124781;23;19921;-80
2022/04/15 09:31:23;;;;;;;;;;;16.90;99.90;;;;;;6125765;23;19921;-80
2022/04/15 09:33:52;;;;;;;;;;;17.00;99.90;;;;;;6150909;23;19921;-79
2022/04/15 09:36:27;;;;;;;;;;;17.10;99.90;;;;;;6139573;23;19925;-79
2022/04/15 09:39:15;;;;;;;;;;;17.10;99.90;;;;;;6125031;23;19921;-80
2022/04/15 09:41:52;;;;;;;;;;;17.10;99.90;;;;;;6115114;23;19935;-80
2022/04/15 09:44:20;;;;;;;;;;;17.20;99.90;;;;;;6149773;23;19921;-80
2022/04/15 09:46:51;;;;;;;;;;;17.20;99.90;;;;;;6087008;23;19932;-81
2022/04/15 09:49:19;;;;;;;;;;;17.30;99.90;;;;;;6115054;23;19931;-80
2022/04/15 09:51:51;;;;;;;;;;;17.40;99.90;;;;;;6145689;23;19994;-80
2022/04/15 09:54:22;;;;;;;;;;;17.30;99.90;;;;;;6113861;23;19927;-79
2022/04/15 09:56:58;;;;;;;;;;;17.40;99.90;;;;;;6114273;23;19921;-80
2022/04/15 09:59:26;;;;;;;;;;;17.50;99.90;;;;;;6090433;23;19931;-80
2022/04/15 10:01:55;;;;;;;;;;;17.50;99.90;;;;;;6124416;23;20416;-80
2022/04/15 10:04:24;;;;;;;;;;;17.60;99.90;;;;;;6150342;23;19924;-80
2022/04/15 10:06:52;;;;;;;;;;;17.70;99.90;;;;;;6090906;23;19931;-80
2022/04/15 10:09:20;;;;;;;;;;;17.70;99.90;;;;;;6115808;23;19921;-79
2022/04/15 10:11:49;;;;;;;;;;;17.60;99.90;;;;;;6153228;23;19925;-81
2022/04/15 10:14:19;;;;;;;;;;;18.00;99.90;;;;;;6116621;23;19921;-80
2022/04/15 10:16:47;;;;;;;;;;;18.10;99.60;;;;;;6091452;23;19931;-79
2022/04/15 10:19:18;;;;;;;;;;;18.20;99.40;;;;;;6115327;23;19920;-80
2022/04/15 10:21:53;;;;;;;;;;;18.30;99.40;;;;;;6141593;23;19928;-79
2022/04/15 10:24:25;;;;;;;;;;;17.60;98.70;;;;;;6114174;23;19921;-79
2022/04/15 10:26:56;;;;;;;;;;;18.40;98.80;;;;;;6116580;23;19927;-79
2022/04/15 10:29:24;;;;;;;;;;;18.50;99.10;;;;;;6148386;23;19921;-80
2022/04/15 10:31:52;;;;;;;;;;;18.50;98.30;;;;;;6124055;23;19921;-80
2022/04/15 10:34:24;;;;;;;;;;;18.50;98.60;;;;;;6114502;23;19931;-80
2022/04/15 10:36:53;;;;;;;;;;;18.60;98.70;;;;;;6115283;23;19935;-79
2022/04/15 10:39:26;;;;;;;;;;;18.70;98.40;;;;;;6114899;23;19921;-79
2022/04/15 10:41:58;;;;;;;;;;;17.20;97.00;;;;;;6116038;23;19921;-79
2022/04/15 10:44:35;;;;;;;;;;;18.90;97.90;;;;;;6152723;23;19960;-78
2022/04/15 10:47:22;;;;;;;;;;;18.90;97.30;;;;;;6141379;23;19927;-79
2022/04/15 10:49:56;;;;;;;;;;;19.00;97.90;;;;;;6090756;23;19921;-80
2022/04/15 10:52:25;;;;;;;;;;;19.00;97.50;;;;;;6143199;23;19927;-81
2022/04/15 10:54:56;;;;;;;;;;;19.80;98.00;;;;;;6141988;23;19921;-80
2022/04/15 10:57:30;;;;;;;;;;;19.10;97.90;;;;;;6115128;23;19927;-78
2022/04/15 11:02:58;;;;;;;;;;;19.80;97.40;;;;;;6118314;23;19931;-80
2022/04/15 11:05:32;;;;;;;;;;;19.30;96.90;;;;;;6116789;23;19925;-80
2022/04/15 11:08:09;;;;;;;;;;;19.40;96.80;;;;;;6153169;23;19921;-80
2022/04/15 11:10:42;;;;;;;;;;;19.50;96.80;;;;;;6153333;23;19927;-80
2022/04/15 11:13:28;;;;;;;;;;;19.70;96.60;;;;;;6157686;23;19931;-81
2022/04/15 11:15:58;;;;;;;;;;;19.70;96.20;;;;;;6156876;23;19925;-80
2022/04/15 11:18:50;;;;;;;;;;;19.40;96.50;;;;;;6155446;23;19925;-81
2022/04/15 11:21:36;;;;;;;;;;;19.70;96.00;;;;;;6118294;23;19939;-79
2022/04/15 11:24:08;;;;;;;;;;;19.80;96.30;;;;;;6111668;23;19921;-81
2022/04/15 11:26:38;;;;;;;;;;;19.90;95.10;;;;;;6112360;23;19925;-80
2022/04/15 11:29:06;;;;;;;;;;;20.10;96.30;;;;;;6110727;23;19921;-80
2022/04/15 11:31:37;;;;;;;;;;;20.20;95.50;;;;;;6122108;23;19932;-81
2022/04/15 11:34:07;;;;;;;;;;;20.40;95.90;;;;;;6115782;23;19921;-81
2022/04/15 11:36:36;;;;;;;;;;;20.50;95.20;;;;;;6115808;23;19921;-80
2022/04/15 11:39:05;;;;;;;;;;;20.50;95.40;;;;;;6140276;23;19928;-81
2022/04/15 11:41:34;;;;;;;;;;;20.80;95.50;;;;;;6116692;23;19921;-80
2022/04/15 11:44:02;;;;;;;;;;;21.00;95.50;;;;;;6116245;23;19928;-79
2022/04/15 11:46:36;;;;;;;;;;;21.20;95.60;;;;;;6124760;23;19921;-79
2022/04/15 11:49:11;;;;;;;;;;;21.50;95.20;;;;;;6111609;23;19943;-80
2022/04/15 11:51:42;;;;;;;;;;;21.50;94.40;;;;;;6113025;23;20276;-79
2022/04/15 11:54:11;;;;;;;;;;;21.50;93.70;;;;;;6117954;23;19915;-79
2022/04/15 11:56:40;;;;;;;;;;;21.50;94.40;;;;;;6142549;23;19931;-81
2022/04/15 11:59:11;;;;;;;;;;;21.60;93.50;;;;;;6116899;23;19925;-79
2022/04/15 12:01:40;;;;;;;;;;;21.40;93.80;;;;;;6112852;23;19928;-81
2022/04/15 12:04:08;;;;;;;;;;;21.30;93.80;;;;;;6116616;23;19925;-80
2022/04/15 12:06:40;;;;;;;;;;;21.20;94.10;;;;;;6123434;23;20084;-81
2022/04/15 12:09:10;;;;;;;;;;;21.10;94.10;;;;;;6090297;23;19925;-80
2022/04/15 12:12:01;;;;;;;;;;;21.20;94.30;;;;;;6069882;23;19921;-80
2022/04/15 12:14:36;;;;;;;;;;;21.30;94.00;;;;;;6125864;23;19935;-80
2022/04/15 12:17:07;;;;;;;;;;;21.30;93.50;;;;;;6116444;23;19921;-79
2022/04/15 12:19:39;;;;;;;;;;;21.50;93.50;;;;;;6118385;23;19921;-80
2022/04/15 12:22:07;;;;;;;;;;;21.60;93.20;;;;;;6117342;23;19926;-80
2022/04/15 12:24:37;;;;;;;;;;;21.80;92.80;;;;;;6138958;23;19925;-80
2022/04/15 12:27:05;;;;;;;;;;;22.00;92.50;;;;;;6112026;23;19931;-80
2022/04/15 12:29:48;;;;;;;;;;;22.40;92.90;;;;;;6136889;23;19927;-80
2022/04/15 12:32:19;;;;;;;;;;;22.50;92.00;;;;;;6146715;23;19925;-80
2022/04/15 12:34:51;;;;;;;;;;;22.70;92.80;;;;;;6113286;23;19932;-80
2022/04/15 12:37:38;;;;;;;;;;;22.50;91.00;;;;;;6114730;23;19932;-81
2022/04/15 12:40:06;;;;;;;;;;;23.00;91.20;;;;;;6147506;23;19931;-80
2022/04/15 12:42:37;;;;;;;;;;;22.50;91.70;;;;;;6122728;23;19921;-80
2022/04/15 12:45:07;;;;;;;;;;;23.20;91.10;;;;;;6116722;23;19921;-80
2022/04/15 12:47:38;;;;;;;;;;;23.30;90.00;;;;;;6137578;23;19931;-80
2022/04/15 12:50:19;;;;;;;;;;;23.50;90.10;;;;;;6138181;23;19921;-80
2022/04/15 12:52:48;;;;;;;;;;;23.50;90.70;;;;;;6114786;23;19935;-79
2022/04/15 12:55:32;;;;;;;;;;;24.80;90.50;;;;;;6112581;23;19921;-81
2022/04/15 12:58:02;;;;;;;;;;;23.60;90.40;;;;;;6148325;23;19935;-80
2022/04/15 13:00:30;;;;;;;;;;;23.70;89.00;;;;;;6113421;23;19921;-79
2022/04/15 13:02:58;;;;;;;;;;;23.60;88.40;;;;;;6140633;23;20221;-81
2022/04/15 13:05:26;;;;;;;;;;;23.50;89.10;;;;;;6113521;23;19925;-80
2022/04/15 13:07:54;;;;;;;;;;;23.50;89.40;;;;;;6118012;23;19931;-79
2022/04/15 13:10:26;;;;;;;;;;;23.20;89.30;;;;;;6116510;23;19921;-82
2022/04/15 13:13:20;;;;;;;;;;;23.00;88.90;;;;;;6115861;23;19921;-81
2022/04/15 13:15:48;;;;;;;;;;;23.50;89.70;;;;;;6115018;23;19928;-81
2022/04/15 13:18:17;;;;;;;;;;;23.00;89.10;;;;;;6147079;23;19917;-81
2022/04/15 13:20:49;;;;;;;;;;;23.90;88.50;;;;;;6116262;23;19927;-81
2022/04/15 13:23:17;;;;;;;;;;;22.90;87.80;;;;;;6089232;23;19925;-79
2022/04/15 13:25:45;;;;;;;;;;;23.00;87.30;;;;;;6145126;23;19921;-80
2022/04/15 13:28:14;;;;;;;;;;;23.00;87.50;;;;;;6117323;23;19924;-81
2022/04/15 13:30:43;;;;;;;;;;;23.00;86.40;;;;;;6152801;23;19924;-80
2022/04/15 13:33:11;;;;;;;;;;;21.40;87.50;;;;;;6116591;23;19927;-80
2022/04/15 13:35:39;;;;;;;;;;;21.90;87.40;;;;;;6127445;23;20020;-80
2022/04/15 13:38:07;;;;;;;;;;;22.70;87.30;;;;;;6151620;23;20242;-80
2022/04/15 13:40:38;;;;;;;;;;;22.70;87.70;;;;;;6115827;23;19929;-79
2022/04/15 13:43:06;;;;;;;;;;;22.50;87.30;;;;;;6126472;23;19927;-80
2022/04/15 13:45:34;;;;;;;;;;;22.40;88.10;;;;;;6151769;23;19928;-80
2022/04/15 13:48:02;;;;;;;;;;;22.20;88.10;;;;;;6115595;23;19925;-80
2022/04/15 13:50:30;;;;;;;;;;;22.30;87.70;;;;;;6150543;23;19921;-80
2022/04/15 13:58:36;;;;;;;;;;;22.40;88.30;;;;;;6152711;23;20342;-81
2022/04/15 14:01:23;;;;;;;;;;;22.50;87.70;;;;;;6151880;23;19921;-81
2022/04/15 14:03:54;;;;;;;;;;;22.70;87.10;;;;;;6141198;23;19925;-81
2022/04/15 14:06:24;;;;;;;;;;;22.90;86.50;;;;;;6152226;23;19927;-81
2022/04/15 14:08:52;;;;;;;;;;;22.90;86.00;;;;;;6116175;23;19921;-81
2022/04/15 14:11:20;;;;;;;;;;;22.90;86.90;;;;;;6140591;23;19920;-82
2022/04/15 14:13:49;;;;;;;;;;;22.80;85.40;;;;;;6142328;23;19921;-81
2022/04/15 14:16:18;;;;;;;;;;;22.80;86.50;;;;;;6116030;23;19928;-81
2022/04/15 14:18:47;;;;;;;;;;;22.80;88.40;;;;;;6150317;23;19921;-81
2022/04/15 14:21:15;;;;;;;;;;;22.70;87.70;;;;;;6092847;23;19925;-82
2022/04/15 14:23:43;;;;;;;;;;;22.70;90.10;;;;;;6143621;23;19924;-82
2022/04/15 14:26:11;;;;;;;;;;;22.70;89.80;;;;;;6125621;23;19921;-82
2022/04/15 14:28:39;;;;;;;;;;;22.70;90.30;;;;;;6152200;23;19925;-80
2022/04/15 14:31:08;;;;;;;;;;;22.70;90.20;;;;;;6155077;23;19931;-82
2022/04/15 14:33:36;;;;;;;;;;;22.60;90.40;;;;;;6121278;23;19921;-82
2022/04/15 14:36:06;;;;;;;;;;;22.80;90.90;;;;;;6152050;23;19921;-81
2022/04/15 14:38:34;;;;;;;;;;;23.00;90.70;;;;;;6116595;23;19924;-81
2022/04/15 14:41:04;;;;;;;;;;;23.40;90.80;;;;;;6093018;23;19921;-80
2022/04/15 14:43:35;;;;;;;;;;;23.40;90.60;;;;;;6153677;23;19921;-80